Terminal Aerodrome Forecast
Issued by NWS

Home | Current Version | Previous Version | Graphics & Text | Print | Product List | Glossary On
Versions: 1 2 3 4 5 6 7 8 9 10 11 12 13 14
000
FTUS43 KMPX 131142
TAFAXN
TAF
KAXN 131142Z 1312/1412 33018G31KT P6SM VCSH BKN007 OVC012
      TEMPO 1312/1314 4SM -SN BR
     FM131400 33021G37KT P6SM OVC012
     FM132200 34017G28KT P6SM OVC022
     FM140300 33009KT P6SM BKN018 OVC050=

USA.gov is the U.S. government's official web portal to all federal, state and local government web resources and services.